sensor_id;sensor_type;location;lat;lon;timestamp;P1;durP1;ratioP1;P2;durP2;ratioP2
74152;SDS011;62505;46.070;14.492;2023-02-01T00:00:28;6.45;;;5.18;;
74152;SDS011;62505;46.070;14.492;2023-02-01T00:02:56;7.07;;;4.97;;
74152;SDS011;62505;46.070;14.492;2023-02-01T00:05:23;6.60;;;4.80;;
74152;SDS011;62505;46.070;14.492;2023-02-01T00:07:50;6.32;;;4.88;;
74152;SDS011;62505;46.070;14.492;2023-02-01T00:10:17;6.40;;;4.97;;
74152;SDS011;62505;46.070;14.492;2023-02-01T00:12:44;6.97;;;4.72;;
74152;SDS011;62505;46.070;14.492;2023-02-01T00:15:11;6.68;;;4.82;;
74152;SDS011;62505;46.070;14.492;2023-02-01T00:17:38;6.40;;;4.72;;
74152;SDS011;62505;46.070;14.492;2023-02-01T00:20:07;7.40;;;4.70;;
74152;SDS011;62505;46.070;14.492;2023-02-01T00:22:35;6.75;;;4.72;;
74152;SDS011;62505;46.070;14.492;2023-02-01T00:25:02;6.35;;;4.63;;
74152;SDS011;62505;46.070;14.492;2023-02-01T00:27:30;6.03;;;4.53;;
74152;SDS011;62505;46.070;14.492;2023-02-01T00:29:57;7.35;;;4.90;;
74152;SDS011;62505;46.070;14.492;2023-02-01T00:32:24;6.22;;;4.53;;
74152;SDS011;62505;46.070;14.492;2023-02-01T00:34:51;6.57;;;4.85;;
74152;SDS011;62505;46.070;14.492;2023-02-01T00:37:19;6.75;;;5.07;;
74152;SDS011;62505;46.070;14.492;2023-02-01T00:39:46;6.47;;;4.68;;
74152;SDS011;62505;46.070;14.492;2023-02-01T00:42:14;6.05;;;4.95;;
74152;SDS011;62505;46.070;14.492;2023-02-01T00:44:41;6.95;;;5.07;;
74152;SDS011;62505;46.070;14.492;2023-02-01T00:47:08;6.88;;;5.10;;
74152;SDS011;62505;46.070;14.492;2023-02-01T00:49:35;6.75;;;4.90;;
74152;SDS011;62505;46.070;14.492;2023-02-01T00:52:02;6.10;;;4.65;;
74152;SDS011;62505;46.070;14.492;2023-02-01T00:54:31;6.57;;;4.75;;
74152;SDS011;62505;46.070;14.492;2023-02-01T00:57:00;6.85;;;4.70;;
74152;SDS011;62505;46.070;14.492;2023-02-01T00:59:27;7.65;;;4.65;;
74152;SDS011;62505;46.070;14.492;2023-02-01T01:01:54;5.80;;;4.60;;
74152;SDS011;62505;46.070;14.492;2023-02-01T01:04:21;6.55;;;4.68;;
74152;SDS011;62505;46.070;14.492;2023-02-01T01:06:48;6.55;;;4.82;;
74152;SDS011;62505;46.070;14.492;2023-02-01T01:09:15;6.63;;;5.05;;
74152;SDS011;62505;46.070;14.492;2023-02-01T01:11:44;6.43;;;4.70;;
74152;SDS011;62505;46.070;14.492;2023-02-01T01:14:11;6.25;;;4.53;;
74152;SDS011;62505;46.070;14.492;2023-02-01T01:16:38;7.10;;;4.40;;
74152;SDS011;62505;46.070;14.492;2023-02-01T01:19:05;6.43;;;4.97;;
74152;SDS011;62505;46.070;14.492;2023-02-01T01:21:32;6.25;;;5.22;;
74152;SDS011;62505;46.070;14.492;2023-02-01T01:23:59;6.65;;;4.75;;
74152;SDS011;62505;46.070;14.492;2023-02-01T01:26:26;6.30;;;4.68;;
74152;SDS011;62505;46.070;14.492;2023-02-01T01:28:56;6.60;;;4.72;;
74152;SDS011;62505;46.070;14.492;2023-02-01T01:31:25;7.75;;;5.05;;
74152;SDS011;62505;46.070;14.492;2023-02-01T01:33:52;8.23;;;5.00;;
74152;SDS011;62505;46.070;14.492;2023-02-01T01:36:21;5.78;;;4.50;;
74152;SDS011;62505;46.070;14.492;2023-02-01T01:38:48;6.57;;;5.03;;
74152;SDS011;62505;46.070;14.492;2023-02-01T01:41:16;4.90;;;4.40;;
74152;SDS011;62505;46.070;14.492;2023-02-01T01:43:52;7.65;;;4.97;;
74152;SDS011;62505;46.070;14.492;2023-02-01T01:46:22;6.65;;;4.78;;
74152;SDS011;62505;46.070;14.492;2023-02-01T01:48:53;7.10;;;4.82;;
74152;SDS011;62505;46.070;14.492;2023-02-01T01:51:24;6.32;;;4.85;;
74152;SDS011;62505;46.070;14.492;2023-02-01T01:53:56;5.50;;;4.55;;
74152;SDS011;62505;46.070;14.492;2023-02-01T01:56:27;6.32;;;4.45;;
74152;SDS011;62505;46.070;14.492;2023-02-01T01:58:56;5.80;;;4.40;;
74152;SDS011;62505;46.070;14.492;2023-02-01T02:01:25;6.78;;;5.22;;
74152;SDS011;62505;46.070;14.492;2023-02-01T02:03:52;5.53;;;4.40;;
74152;SDS011;62505;46.070;14.492;2023-02-01T02:06:23;5.82;;;4.47;;
74152;SDS011;62505;46.070;14.492;2023-02-01T02:08:57;6.95;;;4.30;;
74152;SDS011;62505;46.070;14.492;2023-02-01T02:11:25;7.03;;;4.30;;
74152;SDS011;62505;46.070;14.492;2023-02-01T02:13:53;5.65;;;4.60;;
74152;SDS011;62505;46.070;14.492;2023-02-01T02:16:32;6.45;;;4.95;;
74152;SDS011;62505;46.070;14.492;2023-02-01T02:25:21;7.03;;;4.65;;
74152;SDS011;62505;46.070;14.492;2023-02-01T02:28:00;7.47;;;5.22;;
74152;SDS011;62505;46.070;14.492;2023-02-01T02:30:51;6.88;;;4.40;;
74152;SDS011;62505;46.070;14.492;2023-02-01T02:33:48;5.75;;;4.60;;
74152;SDS011;62505;46.070;14.492;2023-02-01T02:36:23;6.20;;;4.43;;
74152;SDS011;62505;46.070;14.492;2023-02-01T02:39:01;6.03;;;4.43;;
74152;SDS011;62505;46.070;14.492;2023-02-01T02:41:35;5.70;;;4.43;;
74152;SDS011;62505;46.070;14.492;2023-02-01T02:44:31;5.60;;;4.95;;
74152;SDS011;62505;46.070;14.492;2023-02-01T02:47:20;6.20;;;4.63;;
74152;SDS011;62505;46.070;14.492;2023-02-01T02:50:00;6.25;;;4.90;;
74152;SDS011;62505;46.070;14.492;2023-02-01T02:52:56;5.78;;;4.28;;
74152;SDS011;62505;46.070;14.492;2023-02-01T02:55:44;6.10;;;4.72;;
74152;SDS011;62505;46.070;14.492;2023-02-01T02:58:11;6.45;;;5.07;;
74152;SDS011;62505;46.070;14.492;2023-02-01T03:00:58;5.85;;;4.47;;
74152;SDS011;62505;46.070;14.492;2023-02-01T03:03:43;6.07;;;4.72;;
74152;SDS011;62505;46.070;14.492;2023-02-01T03:06:30;5.90;;;4.82;;
74152;SDS011;62505;46.070;14.492;2023-02-01T03:09:00;6.20;;;4.80;;
74152;SDS011;62505;46.070;14.492;2023-02-01T03:11:30;6.57;;;4.60;;
74152;SDS011;62505;46.070;14.492;2023-02-01T03:14:13;5.93;;;4.30;;
74152;SDS011;62505;46.070;14.492;2023-02-01T03:16:43;6.97;;;5.25;;
74152;SDS011;62505;46.070;14.492;2023-02-01T03:19:14;6.90;;;4.68;;
74152;SDS011;62505;46.070;14.492;2023-02-01T03:21:47;6.78;;;4.53;;
74152;SDS011;62505;46.070;14.492;2023-02-01T03:24:20;7.30;;;5.00;;
74152;SDS011;62505;46.070;14.492;2023-02-01T03:26:58;5.68;;;4.72;;
74152;SDS011;62505;46.070;14.492;2023-02-01T03:29:33;6.40;;;4.90;;
74152;SDS011;62505;46.070;14.492;2023-02-01T03:32:06;7.22;;;4.45;;
74152;SDS011;62505;46.070;14.492;2023-02-01T03:34:34;5.68;;;4.57;;
74152;SDS011;62505;46.070;14.492;2023-02-01T03:37:04;6.10;;;4.25;;
74152;SDS011;62505;46.070;14.492;2023-02-01T03:39:34;7.05;;;4.97;;
74152;SDS011;62505;46.070;14.492;2023-02-01T03:42:05;6.25;;;5.00;;
74152;SDS011;62505;46.070;14.492;2023-02-01T03:44:40;6.47;;;5.05;;
74152;SDS011;62505;46.070;14.492;2023-02-01T03:47:13;6.35;;;4.78;;
74152;SDS011;62505;46.070;14.492;2023-02-01T03:49:45;6.82;;;4.85;;
74152;SDS011;62505;46.070;14.492;2023-02-01T03:52:18;5.68;;;4.47;;
74152;SDS011;62505;46.070;14.492;2023-02-01T03:54:48;6.60;;;4.93;;
74152;SDS011;62505;46.070;14.492;2023-02-01T03:57:18;7.15;;;4.85;;
74152;SDS011;62505;46.070;14.492;2023-02-01T03:59:48;7.35;;;4.78;;
74152;SDS011;62505;46.070;14.492;2023-02-01T04:02:16;6.95;;;4.78;;
74152;SDS011;62505;46.070;14.492;2023-02-01T04:04:43;6.38;;;4.75;;
74152;SDS011;62505;46.070;14.492;2023-02-01T04:07:10;8.75;;;5.07;;
74152;SDS011;62505;46.070;14.492;2023-02-01T04:09:39;5.53;;;4.32;;
74152;SDS011;62505;46.070;14.492;2023-02-01T04:12:07;7.10;;;4.65;;
74152;SDS011;62505;46.070;14.492;2023-02-01T04:14:34;5.72;;;4.50;;
74152;SDS011;62505;46.070;14.492;2023-02-01T04:17:01;6.30;;;4.95;;
74152;SDS011;62505;46.070;14.492;2023-02-01T04:19:28;5.55;;;4.05;;
74152;SDS011;62505;46.070;14.492;2023-02-01T04:21:55;6.43;;;4.85;;
74152;SDS011;62505;46.070;14.492;2023-02-01T04:24:22;5.18;;;4.20;;
74152;SDS011;62505;46.070;14.492;2023-02-01T04:26:50;5.13;;;4.53;;
74152;SDS011;62505;46.070;14.492;2023-02-01T04:29:17;5.68;;;4.55;;
74152;SDS011;62505;46.070;14.492;2023-02-01T04:31:44;5.40;;;4.38;;
74152;SDS011;62505;46.070;14.492;2023-02-01T04:34:11;6.07;;;4.63;;
74152;SDS011;62505;46.070;14.492;2023-02-01T04:36:38;6.93;;;5.22;;
74152;SDS011;62505;46.070;14.492;2023-02-01T04:39:05;6.32;;;4.47;;
74152;SDS011;62505;46.070;14.492;2023-02-01T04:41:32;7.43;;;4.82;;
74152;SDS011;62505;46.070;14.492;2023-02-01T04:44:00;6.60;;;4.72;;
74152;SDS011;62505;46.070;14.492;2023-02-01T04:46:27;6.45;;;4.82;;
74152;SDS011;62505;46.070;14.492;2023-02-01T04:48:54;5.90;;;4.57;;
74152;SDS011;62505;46.070;14.492;2023-02-01T04:51:21;7.97;;;4.82;;
74152;SDS011;62505;46.070;14.492;2023-02-01T04:53:48;5.22;;;4.05;;
74152;SDS011;62505;46.070;14.492;2023-02-01T04:56:15;6.13;;;4.45;;
74152;SDS011;62505;46.070;14.492;2023-02-01T04:58:42;7.07;;;4.75;;
74152;SDS011;62505;46.070;14.492;2023-02-01T05:01:11;6.28;;;4.85;;
74152;SDS011;62505;46.070;14.492;2023-02-01T05:03:38;6.03;;;4.88;;
74152;SDS011;62505;46.070;14.492;2023-02-01T05:06:05;7.43;;;4.75;;
74152;SDS011;62505;46.070;14.492;2023-02-01T05:08:32;6.55;;;4.70;;
74152;SDS011;62505;46.070;14.492;2023-02-01T05:11:02;6.07;;;4.45;;
74152;SDS011;62505;46.070;14.492;2023-02-01T05:13:29;5.93;;;4.45;;
74152;SDS011;62505;46.070;14.492;2023-02-01T05:16:15;6.18;;;4.50;;
74152;SDS011;62505;46.070;14.492;2023-02-01T05:18:42;5.78;;;4.35;;
74152;SDS011;62505;46.070;14.492;2023-02-01T05:21:09;6.07;;;4.55;;
74152;SDS011;62505;46.070;14.492;2023-02-01T05:23:36;6.63;;;4.53;;
74152;SDS011;62505;46.070;14.492;2023-02-01T05:26:23;5.22;;;4.03;;
74152;SDS011;62505;46.070;14.492;2023-02-01T05:28:50;6.68;;;5.05;;
74152;SDS011;62505;46.070;14.492;2023-02-01T05:31:19;7.28;;;5.32;;
74152;SDS011;62505;46.070;14.492;2023-02-01T05:33:46;9.00;;;5.97;;
74152;SDS011;62505;46.070;14.492;2023-02-01T05:36:13;10.30;;;5.60;;
74152;SDS011;62505;46.070;14.492;2023-02-01T05:38:40;8.50;;;5.55;;
74152;SDS011;62505;46.070;14.492;2023-02-01T05:41:08;9.52;;;5.25;;
74152;SDS011;62505;46.070;14.492;2023-02-01T05:43:35;8.70;;;5.15;;
74152;SDS011;62505;46.070;14.492;2023-02-01T05:46:02;8.38;;;5.53;;
74152;SDS011;62505;46.070;14.492;2023-02-01T05:48:30;8.95;;;5.78;;
74152;SDS011;62505;46.070;14.492;2023-02-01T05:50:57;13.60;;;6.00;;
74152;SDS011;62505;46.070;14.492;2023-02-01T05:53:24;7.78;;;5.68;;
74152;SDS011;62505;46.070;14.492;2023-02-01T05:55:51;6.68;;;4.88;;
74152;SDS011;62505;46.070;14.492;2023-02-01T05:58:18;9.75;;;5.82;;
74152;SDS011;62505;46.070;14.492;2023-02-01T06:00:45;10.05;;;5.88;;
74152;SDS011;62505;46.070;14.492;2023-02-01T06:03:12;8.27;;;5.03;;
74152;SDS011;62505;46.070;14.492;2023-02-01T06:05:43;11.38;;;5.32;;
74152;SDS011;62505;46.070;14.492;2023-02-01T06:08:10;12.15;;;6.18;;
74152;SDS011;62505;46.070;14.492;2023-02-01T06:10:37;11.15;;;6.18;;
74152;SDS011;62505;46.070;14.492;2023-02-01T06:13:04;16.88;;;5.95;;
74152;SDS011;62505;46.070;14.492;2023-02-01T06:15:31;8.38;;;5.68;;
74152;SDS011;62505;46.070;14.492;2023-02-01T06:17:58;13.88;;;6.07;;
74152;SDS011;62505;46.070;14.492;2023-02-01T06:20:25;9.20;;;5.72;;
74152;SDS011;62505;46.070;14.492;2023-02-01T06:22:53;10.57;;;5.53;;
74152;SDS011;62505;46.070;14.492;2023-02-01T06:25:20;14.70;;;5.97;;
74152;SDS011;62505;46.070;14.492;2023-02-01T06:27:48;9.32;;;6.68;;
74152;SDS011;62505;46.070;14.492;2023-02-01T06:30:15;9.27;;;5.95;;
74152;SDS011;62505;46.070;14.492;2023-02-01T06:32:43;10.77;;;5.90;;
74152;SDS011;62505;46.070;14.492;2023-02-01T06:35:10;9.57;;;5.15;;
74152;SDS011;62505;46.070;14.492;2023-02-01T06:37:41;11.82;;;5.60;;
74152;SDS011;62505;46.070;14.492;2023-02-01T06:40:10;7.32;;;5.20;;
74152;SDS011;62505;46.070;14.492;2023-02-01T06:42:40;10.80;;;5.80;;
74152;SDS011;62505;46.070;14.492;2023-02-01T06:45:07;15.80;;;5.78;;
74152;SDS011;62505;46.070;14.492;2023-02-01T06:47:35;9.20;;;5.72;;
74152;SDS011;62505;46.070;14.492;2023-02-01T06:50:02;8.07;;;5.78;;
74152;SDS011;62505;46.070;14.492;2023-02-01T06:52:30;9.15;;;5.25;;
74152;SDS011;62505;46.070;14.492;2023-02-01T06:54:56;10.38;;;6.28;;
74152;SDS011;62505;46.070;14.492;2023-02-01T06:57:25;10.02;;;5.70;;
74152;SDS011;62505;46.070;14.492;2023-02-01T06:59:55;8.80;;;6.10;;
74152;SDS011;62505;46.070;14.492;2023-02-01T07:02:23;13.35;;;5.97;;
74152;SDS011;62505;46.070;14.492;2023-02-01T07:04:50;10.57;;;5.88;;
74152;SDS011;62505;46.070;14.492;2023-02-01T07:07:17;10.02;;;6.03;;
74152;SDS011;62505;46.070;14.492;2023-02-01T07:09:47;8.57;;;5.22;;
74152;SDS011;62505;46.070;14.492;2023-02-01T07:12:14;11.95;;;5.75;;
74152;SDS011;62505;46.070;14.492;2023-02-01T07:14:43;10.27;;;5.78;;
74152;SDS011;62505;46.070;14.492;2023-02-01T07:17:10;11.40;;;5.60;;
74152;SDS011;62505;46.070;14.492;2023-02-01T07:19:37;10.55;;;5.65;;
74152;SDS011;62505;46.070;14.492;2023-02-01T07:22:04;10.13;;;5.63;;
74152;SDS011;62505;46.070;14.492;2023-02-01T07:24:30;8.95;;;5.63;;
74152;SDS011;62505;46.070;14.492;2023-02-01T07:26:57;9.23;;;5.82;;
74152;SDS011;62505;46.070;14.492;2023-02-01T07:29:24;7.85;;;5.28;;
74152;SDS011;62505;46.070;14.492;2023-02-01T07:31:53;8.68;;;5.70;;
74152;SDS011;62505;46.070;14.492;2023-02-01T07:34:20;7.25;;;5.00;;
74152;SDS011;62505;46.070;14.492;2023-02-01T07:36:47;10.27;;;5.18;;
74152;SDS011;62505;46.070;14.492;2023-02-01T07:39:13;9.48;;;5.50;;
74152;SDS011;62505;46.070;14.492;2023-02-01T07:41:40;11.40;;;5.63;;
74152;SDS011;62505;46.070;14.492;2023-02-01T07:44:07;8.18;;;5.63;;
74152;SDS011;62505;46.070;14.492;2023-02-01T07:46:34;8.25;;;5.53;;
74152;SDS011;62505;46.070;14.492;2023-02-01T07:49:05;7.78;;;4.80;;
74152;SDS011;62505;46.070;14.492;2023-02-01T07:51:32;9.23;;;4.95;;
74152;SDS011;62505;46.070;14.492;2023-02-01T07:53:59;10.32;;;5.53;;
74152;SDS011;62505;46.070;14.492;2023-02-01T07:56:26;8.30;;;5.38;;
74152;SDS011;62505;46.070;14.492;2023-02-01T07:58:54;9.15;;;5.50;;
74152;SDS011;62505;46.070;14.492;2023-02-01T08:01:21;9.50;;;5.18;;
74152;SDS011;62505;46.070;14.492;2023-02-01T08:03:50;7.68;;;5.30;;
74152;SDS011;62505;46.070;14.492;2023-02-01T08:06:20;10.52;;;5.60;;
74152;SDS011;62505;46.070;14.492;2023-02-01T08:08:48;8.88;;;5.47;;
74152;SDS011;62505;46.070;14.492;2023-02-01T08:11:16;7.25;;;4.97;;
74152;SDS011;62505;46.070;14.492;2023-02-01T08:13:43;11.27;;;5.38;;
74152;SDS011;62505;46.070;14.492;2023-02-01T08:16:11;7.03;;;5.05;;
74152;SDS011;62505;46.070;14.492;2023-02-01T08:18:39;10.27;;;5.45;;
74152;SDS011;62505;46.070;14.492;2023-02-01T08:21:08;7.68;;;5.10;;
74152;SDS011;62505;46.070;14.492;2023-02-01T08:23:38;8.00;;;5.07;;
74152;SDS011;62505;46.070;14.492;2023-02-01T08:26:09;7.50;;;5.28;;
74152;SDS011;62505;46.070;14.492;2023-02-01T08:28:39;8.63;;;5.45;;
74152;SDS011;62505;46.070;14.492;2023-02-01T08:31:09;8.80;;;5.93;;
74152;SDS011;62505;46.070;14.492;2023-02-01T08:33:39;10.57;;;5.78;;
74152;SDS011;62505;46.070;14.492;2023-02-01T08:36:07;9.05;;;4.93;;
74152;SDS011;62505;46.070;14.492;2023-02-01T08:38:35;7.57;;;5.20;;
74152;SDS011;62505;46.070;14.492;2023-02-01T08:41:05;9.88;;;5.38;;
74152;SDS011;62505;46.070;14.492;2023-02-01T08:43:33;8.40;;;5.38;;
74152;SDS011;62505;46.070;14.492;2023-02-01T08:46:00;9.15;;;5.47;;
74152;SDS011;62505;46.070;14.492;2023-02-01T08:48:27;7.55;;;5.43;;
74152;SDS011;62505;46.070;14.492;2023-02-01T08:50:54;8.45;;;5.50;;
74152;SDS011;62505;46.070;14.492;2023-02-01T08:53:21;9.77;;;6.30;;
74152;SDS011;62505;46.070;14.492;2023-02-01T08:55:49;8.88;;;5.65;;
74152;SDS011;62505;46.070;14.492;2023-02-01T08:58:16;9.48;;;5.80;;
74152;SDS011;62505;46.070;14.492;2023-02-01T09:00:44;10.32;;;5.85;;
74152;SDS011;62505;46.070;14.492;2023-02-01T09:03:13;9.10;;;5.78;;
74152;SDS011;62505;46.070;14.492;2023-02-01T09:05:40;8.65;;;5.68;;
74152;SDS011;62505;46.070;14.492;2023-02-01T09:08:07;8.93;;;5.50;;
74152;SDS011;62505;46.070;14.492;2023-02-01T09:10:35;7.40;;;5.45;;
74152;SDS011;62505;46.070;14.492;2023-02-01T09:13:04;7.53;;;5.25;;
74152;SDS011;62505;46.070;14.492;2023-02-01T09:15:31;9.07;;;5.82;;
74152;SDS011;62505;46.070;14.492;2023-02-01T09:17:58;9.02;;;6.00;;
74152;SDS011;62505;46.070;14.492;2023-02-01T09:20:25;8.23;;;5.38;;
74152;SDS011;62505;46.070;14.492;2023-02-01T09:22:52;8.77;;;5.82;;
74152;SDS011;62505;46.070;14.492;2023-02-01T09:25:21;7.72;;;5.32;;
74152;SDS011;62505;46.070;14.492;2023-02-01T09:27:48;7.93;;;5.65;;
74152;SDS011;62505;46.070;14.492;2023-02-01T09:30:16;9.23;;;5.65;;
74152;SDS011;62505;46.070;14.492;2023-02-01T09:32:43;9.18;;;6.20;;
74152;SDS011;62505;46.070;14.492;2023-02-01T09:35:10;8.43;;;5.85;;
74152;SDS011;62505;46.070;14.492;2023-02-01T09:37:37;8.02;;;5.65;;
74152;SDS011;62505;46.070;14.492;2023-02-01T09:40:05;8.35;;;5.93;;
74152;SDS011;62505;46.070;14.492;2023-02-01T09:42:42;10.77;;;6.10;;
74152;SDS011;62505;46.070;14.492;2023-02-01T09:45:21;9.43;;;5.68;;
74152;SDS011;62505;46.070;14.492;2023-02-01T09:47:55;8.40;;;5.68;;
74152;SDS011;62505;46.070;14.492;2023-02-01T09:50:28;10.48;;;5.88;;
74152;SDS011;62505;46.070;14.492;2023-02-01T09:53:01;9.23;;;5.63;;
74152;SDS011;62505;46.070;14.492;2023-02-01T09:55:32;8.32;;;6.00;;
74152;SDS011;62505;46.070;14.492;2023-02-01T09:58:04;7.88;;;5.47;;
74152;SDS011;62505;46.070;14.492;2023-02-01T10:00:36;8.63;;;6.07;;
74152;SDS011;62505;46.070;14.492;2023-02-01T10:03:07;7.30;;;5.43;;
74152;SDS011;62505;46.070;14.492;2023-02-01T10:05:42;8.70;;;5.88;;
74152;SDS011;62505;46.070;14.492;2023-02-01T10:08:23;7.78;;;5.65;;
74152;SDS011;62505;46.070;14.492;2023-02-01T10:10:57;7.47;;;5.57;;
74152;SDS011;62505;46.070;14.492;2023-02-01T10:13:38;7.40;;;6.00;;
74152;SDS011;62505;46.070;14.492;2023-02-01T10:16:20;7.82;;;5.72;;
74152;SDS011;62505;46.070;14.492;2023-02-01T10:19:06;8.60;;;5.90;;
74152;SDS011;62505;46.070;14.492;2023-02-01T10:21:47;9.88;;;5.95;;
74152;SDS011;62505;46.070;14.492;2023-02-01T10:24:22;8.60;;;5.75;;
74152;SDS011;62505;46.070;14.492;2023-02-01T10:27:01;9.63;;;6.00;;
74152;SDS011;62505;46.070;14.492;2023-02-01T10:29:36;8.10;;;5.97;;
74152;SDS011;62505;46.070;14.492;2023-02-01T10:32:12;7.85;;;5.78;;
74152;SDS011;62505;46.070;14.492;2023-02-01T10:34:41;10.32;;;6.22;;
74152;SDS011;62505;46.070;14.492;2023-02-01T10:37:13;9.32;;;6.03;;
74152;SDS011;62505;46.070;14.492;2023-02-01T10:39:49;8.50;;;5.80;;
74152;SDS011;62505;46.070;14.492;2023-02-01T10:42:19;8.70;;;6.13;;
74152;SDS011;62505;46.070;14.492;2023-02-01T10:44:49;8.70;;;5.90;;
74152;SDS011;62505;46.070;14.492;2023-02-01T10:47:19;10.32;;;6.32;;
74152;SDS011;62505;46.070;14.492;2023-02-01T10:49:47;8.13;;;5.75;;
74152;SDS011;62505;46.070;14.492;2023-02-01T10:52:21;8.07;;;5.70;;
74152;SDS011;62505;46.070;14.492;2023-02-01T10:54:57;9.63;;;5.78;;
74152;SDS011;62505;46.070;14.492;2023-02-01T10:57:55;8.55;;;6.10;;
74152;SDS011;62505;46.070;14.492;2023-02-01T11:00:23;7.60;;;5.70;;
74152;SDS011;62505;46.070;14.492;2023-02-01T11:02:52;8.55;;;6.22;;
74152;SDS011;62505;46.070;14.492;2023-02-01T11:05:21;8.50;;;5.93;;
74152;SDS011;62505;46.070;14.492;2023-02-01T11:07:49;8.77;;;4.97;;
74152;SDS011;62505;46.070;14.492;2023-02-01T11:10:33;8.43;;;6.03;;
74152;SDS011;62505;46.070;14.492;2023-02-01T11:13:02;8.80;;;6.07;;
74152;SDS011;62505;46.070;14.492;2023-02-01T11:15:29;9.40;;;5.88;;
74152;SDS011;62505;46.070;14.492;2023-02-01T11:17:58;7.72;;;5.68;;
74152;SDS011;62505;46.070;14.492;2023-02-01T11:20:41;10.15;;;6.10;;
74152;SDS011;62505;46.070;14.492;2023-02-01T11:23:13;9.25;;;6.32;;
74152;SDS011;62505;46.070;14.492;2023-02-01T11:25:47;7.90;;;6.20;;
74152;SDS011;62505;46.070;14.492;2023-02-01T11:28:16;8.55;;;5.68;;
74152;SDS011;62505;46.070;14.492;2023-02-01T11:30:44;7.97;;;5.55;;
74152;SDS011;62505;46.070;14.492;2023-02-01T11:33:15;9.80;;;5.85;;
74152;SDS011;62505;46.070;14.492;2023-02-01T11:35:43;9.20;;;5.82;;
74152;SDS011;62505;46.070;14.492;2023-02-01T11:38:14;8.05;;;5.72;;
74152;SDS011;62505;46.070;14.492;2023-02-01T11:40:47;7.95;;;6.03;;
74152;SDS011;62505;46.070;14.492;2023-02-01T11:43:16;7.93;;;5.55;;
74152;SDS011;62505;46.070;14.492;2023-02-01T11:45:56;7.93;;;5.35;;
74152;SDS011;62505;46.070;14.492;2023-02-01T11:48:26;8.32;;;5.95;;
74152;SDS011;62505;46.070;14.492;2023-02-01T11:50:59;8.43;;;5.78;;
74152;SDS011;62505;46.070;14.492;2023-02-01T11:53:39;8.80;;;5.60;;
74152;SDS011;62505;46.070;14.492;2023-02-01T11:56:21;8.38;;;5.65;;
74152;SDS011;62505;46.070;14.492;2023-02-01T11:59:04;8.65;;;5.97;;
74152;SDS011;62505;46.070;14.492;2023-02-01T12:01:49;8.07;;;5.93;;
74152;SDS011;62505;46.070;14.492;2023-02-01T12:07:26;7.03;;;5.25;;
74152;SDS011;62505;46.070;14.492;2023-02-01T12:10:06;8.02;;;5.72;;
74152;SDS011;62505;46.070;14.492;2023-02-01T12:12:49;7.97;;;5.75;;
74152;SDS011;62505;46.070;14.492;2023-02-01T12:15:27;8.45;;;5.68;;
74152;SDS011;62505;46.070;14.492;2023-02-01T12:18:06;7.60;;;5.35;;
74152;SDS011;62505;46.070;14.492;2023-02-01T12:21:06;7.75;;;5.65;;
74152;SDS011;62505;46.070;14.492;2023-02-01T12:23:46;6.70;;;5.40;;
74152;SDS011;62505;46.070;14.492;2023-02-01T12:29:33;8.00;;;5.80;;
74152;SDS011;62505;46.070;14.492;2023-02-01T12:32:11;6.82;;;5.47;;
74152;SDS011;62505;46.070;14.492;2023-02-01T12:34:59;6.88;;;5.22;;
74152;SDS011;62505;46.070;14.492;2023-02-01T12:37:51;9.20;;;5.55;;
74152;SDS011;62505;46.070;14.492;2023-02-01T12:40:33;7.18;;;5.82;;
74152;SDS011;62505;46.070;14.492;2023-02-01T12:43:09;7.07;;;5.38;;
74152;SDS011;62505;46.070;14.492;2023-02-01T12:45:47;8.30;;;5.43;;
74152;SDS011;62505;46.070;14.492;2023-02-01T12:48:23;8.45;;;5.63;;
74152;SDS011;62505;46.070;14.492;2023-02-01T12:50:54;7.63;;;6.13;;
74152;SDS011;62505;46.070;14.492;2023-02-01T12:53:30;8.32;;;5.35;;
74152;SDS011;62505;46.070;14.492;2023-02-01T12:56:06;8.52;;;6.32;;
74152;SDS011;62505;46.070;14.492;2023-02-01T12:58:40;7.90;;;5.72;;
74152;SDS011;62505;46.070;14.492;2023-02-01T13:01:11;8.18;;;5.68;;
74152;SDS011;62505;46.070;14.492;2023-02-01T13:03:49;8.20;;;5.60;;
74152;SDS011;62505;46.070;14.492;2023-02-01T13:06:21;7.80;;;5.82;;
74152;SDS011;62505;46.070;14.492;2023-02-01T13:08:54;8.10;;;5.70;;
74152;SDS011;62505;46.070;14.492;2023-02-01T13:11:28;7.22;;;5.10;;
74152;SDS011;62505;46.070;14.492;2023-02-01T13:13:59;6.75;;;5.50;;
74152;SDS011;62505;46.070;14.492;2023-02-01T13:16:30;7.97;;;5.35;;
74152;SDS011;62505;46.070;14.492;2023-02-01T13:19:03;8.52;;;5.85;;
74152;SDS011;62505;46.070;14.492;2023-02-01T13:21:39;8.73;;;5.88;;
74152;SDS011;62505;46.070;14.492;2023-02-01T13:24:15;8.68;;;5.93;;
74152;SDS011;62505;46.070;14.492;2023-02-01T13:26:54;6.85;;;5.32;;
74152;SDS011;62505;46.070;14.492;2023-02-01T13:29:22;8.55;;;6.03;;
74152;SDS011;62505;46.070;14.492;2023-02-01T13:35:15;6.82;;;5.30;;
74152;SDS011;62505;46.070;14.492;2023-02-01T13:41:10;7.97;;;5.40;;
74152;SDS011;62505;46.070;14.492;2023-02-01T13:43:52;8.45;;;5.93;;
74152;SDS011;62505;46.070;14.492;2023-02-01T13:46:22;6.57;;;5.28;;
74152;SDS011;62505;46.070;14.492;2023-02-01T13:48:49;8.70;;;5.22;;
74152;SDS011;62505;46.070;14.492;2023-02-01T13:51:18;7.93;;;5.38;;
74152;SDS011;62505;46.070;14.492;2023-02-01T13:53:59;6.93;;;5.20;;
74152;SDS011;62505;46.070;14.492;2023-02-01T13:56:28;7.47;;;5.47;;
74152;SDS011;62505;46.070;14.492;2023-02-01T13:59:35;7.57;;;5.28;;
74152;SDS011;62505;46.070;14.492;2023-02-01T14:08:41;7.88;;;5.78;;
74152;SDS011;62505;46.070;14.492;2023-02-01T14:26:07;8.02;;;5.63;;
74152;SDS011;62505;46.070;14.492;2023-02-01T14:28:42;7.25;;;5.18;;
74152;SDS011;62505;46.070;14.492;2023-02-01T14:34:16;7.22;;;5.38;;
74152;SDS011;62505;46.070;14.492;2023-02-01T14:36:50;7.57;;;5.45;;
74152;SDS011;62505;46.070;14.492;2023-02-01T14:39:27;9.00;;;5.38;;
74152;SDS011;62505;46.070;14.492;2023-02-01T14:41:59;7.72;;;5.57;;
74152;SDS011;62505;46.070;14.492;2023-02-01T14:44:35;8.05;;;6.18;;
74152;SDS011;62505;46.070;14.492;2023-02-01T14:50:00;7.43;;;5.43;;
74152;SDS011;62505;46.070;14.492;2023-02-01T14:53:12;8.45;;;5.45;;
74152;SDS011;62505;46.070;14.492;2023-02-01T14:55:47;7.65;;;5.47;;
74152;SDS011;62505;46.070;14.492;2023-02-01T14:58:24;6.90;;;5.25;;
74152;SDS011;62505;46.070;14.492;2023-02-01T15:01:01;7.57;;;5.50;;
74152;SDS011;62505;46.070;14.492;2023-02-01T15:03:34;8.40;;;5.22;;
74152;SDS011;62505;46.070;14.492;2023-02-01T15:06:13;7.07;;;5.28;;
74152;SDS011;62505;46.070;14.492;2023-02-01T15:08:47;7.30;;;5.57;;
74152;SDS011;62505;46.070;14.492;2023-02-01T15:11:15;6.85;;;5.20;;
74152;SDS011;62505;46.070;14.492;2023-02-01T15:13:47;7.53;;;5.32;;
74152;SDS011;62505;46.070;14.492;2023-02-01T15:16:17;7.63;;;5.25;;
74152;SDS011;62505;46.070;14.492;2023-02-01T15:18:44;6.93;;;5.20;;
74152;SDS011;62505;46.070;14.492;2023-02-01T15:21:15;8.07;;;5.95;;
74152;SDS011;62505;46.070;14.492;2023-02-01T15:23:44;7.57;;;5.32;;
74152;SDS011;62505;46.070;14.492;2023-02-01T15:26:24;6.75;;;5.18;;
74152;SDS011;62505;46.070;14.492;2023-02-01T15:28:52;7.60;;;5.13;;
74152;SDS011;62505;46.070;14.492;2023-02-01T15:31:32;8.27;;;6.03;;
74152;SDS011;62505;46.070;14.492;2023-02-01T15:34:00;9.13;;;5.57;;
74152;SDS011;62505;46.070;14.492;2023-02-01T15:36:27;7.60;;;5.50;;
74152;SDS011;62505;46.070;14.492;2023-02-01T15:41:46;8.75;;;6.30;;
74152;SDS011;62505;46.070;14.492;2023-02-01T15:44:19;10.68;;;5.68;;
74152;SDS011;62505;46.070;14.492;2023-02-01T15:46:55;8.20;;;5.35;;